createdAt,value
2023-03-29T00:02:18.222Z,3.70
2023-03-29T00:04:45.051Z,3.71
2023-03-29T00:07:14.002Z,3.70
2023-03-29T00:09:40.314Z,3.71
2023-03-29T00:12:07.050Z,3.73
2023-03-29T00:14:33.485Z,3.69
2023-03-29T00:16:59.794Z,3.62
2023-03-29T00:19:26.417Z,3.61
2023-03-29T00:21:52.944Z,3.70
2023-03-29T00:24:20.853Z,3.68
2023-03-29T00:26:47.122Z,3.52
2023-03-29T00:29:13.418Z,3.50
2023-03-29T00:31:39.985Z,3.46
2023-03-29T00:34:07.169Z,3.48
2023-03-29T00:36:33.469Z,3.46
2023-03-29T00:38:59.790Z,3.40
2023-03-29T00:41:26.183Z,3.45
2023-03-29T00:43:58.968Z,3.49
2023-03-29T00:46:27.182Z,3.51
2023-03-29T00:48:56.878Z,3.49
2023-03-29T00:51:27.424Z,3.45
2023-03-29T00:53:58.715Z,3.40
2023-03-29T00:56:33.208Z,3.37
2023-03-29T00:59:07.042Z,3.40
2023-03-29T01:01:42.047Z,3.40
2023-03-29T01:04:20.677Z,3.39
2023-03-29T01:06:58.272Z,3.51
2023-03-29T01:09:30.237Z,3.40
2023-03-29T01:11:59.337Z,3.41
2023-03-29T01:14:38.304Z,3.46
2023-03-29T01:17:05.571Z,3.47
2023-03-29T01:19:38.609Z,3.46
2023-03-29T01:22:16.984Z,3.47
2023-03-29T01:24:55.180Z,3.28
2023-03-29T01:27:49.947Z,3.32
2023-03-29T01:30:26.589Z,3.32
2023-03-29T01:33:23.422Z,3.38
2023-03-29T01:35:59.753Z,3.41
2023-03-29T01:38:42.707Z,3.43
2023-03-29T01:41:10.338Z,3.36
2023-03-29T01:44:07.040Z,3.34
2023-03-29T01:46:43.602Z,3.40
2023-03-29T01:49:15.753Z,3.38
2023-03-29T01:51:49.036Z,3.39
2023-03-29T01:54:20.518Z,3.33
2023-03-29T01:56:49.875Z,3.24
2023-03-29T01:59:22.059Z,3.22
2023-03-29T02:01:57.766Z,3.22
2023-03-29T02:04:31.293Z,3.15
2023-03-29T02:07:00.543Z,3.10
2023-03-29T02:09:28.725Z,3.17
2023-03-29T02:11:58.637Z,3.15
2023-03-29T02:14:25.688Z,3.16
2023-03-29T02:16:52.114Z,3.09
2023-03-29T02:19:19.701Z,3.11
2023-03-29T02:22:10.094Z,3.18
2023-03-29T02:24:38.822Z,3.19
2023-03-29T02:27:05.320Z,3.06
2023-03-29T02:29:31.759Z,3.08
2023-03-29T02:32:17.075Z,3.01
2023-03-29T02:34:54.497Z,2.94
2023-03-29T02:37:24.356Z,2.82
2023-03-29T02:39:52.340Z,2.77
2023-03-29T02:42:20.245Z,2.80
2023-03-29T02:44:50.393Z,2.77
2023-03-29T02:47:31.823Z,2.77
2023-03-29T02:49:59.284Z,2.71
2023-03-29T02:52:33.312Z,2.71
2023-03-29T02:55:02.912Z,2.68
2023-03-29T02:57:29.317Z,2.63
2023-03-29T02:59:57.519Z,2.63
2023-03-29T03:02:27.619Z,2.57
2023-03-29T03:04:54.120Z,2.39
2023-03-29T03:07:20.848Z,2.45
2023-03-29T03:09:47.677Z,2.48
2023-03-29T03:12:14.103Z,2.56
2023-03-29T03:14:40.395Z,2.56
2023-03-29T03:17:06.672Z,2.48
2023-03-29T03:19:32.971Z,2.44
2023-03-29T03:21:59.689Z,2.43
2023-03-29T03:24:27.872Z,2.50
2023-03-29T03:26:54.361Z,2.53
2023-03-29T03:29:20.706Z,2.51
2023-03-29T03:31:47.039Z,2.57
2023-03-29T03:34:13.422Z,2.53
2023-03-29T03:36:39.734Z,2.50
2023-03-29T03:39:07.181Z,2.48
2023-03-29T03:41:34.624Z,2.49
2023-03-29T03:44:01.620Z,2.53
2023-03-29T03:46:29.471Z,2.47
2023-03-29T03:48:57.248Z,2.48
2023-03-29T03:51:23.527Z,2.53
2023-03-29T03:53:49.888Z,2.57
2023-03-29T03:56:16.379Z,2.48
2023-03-29T03:58:42.736Z,2.45
2023-03-29T04:01:09.767Z,2.48
2023-03-29T04:03:37.489Z,2.48
2023-03-29T04:06:04.542Z,2.48
2023-03-29T04:08:31.884Z,2.46
2023-03-29T04:10:59.854Z,2.53
2023-03-29T04:13:26.926Z,2.54
2023-03-29T04:15:54.132Z,2.54
2023-03-29T04:18:21.708Z,2.55
2023-03-29T04:20:48.751Z,2.53
2023-03-29T04:23:15.417Z,2.57
2023-03-29T04:25:41.772Z,2.57
2023-03-29T04:28:09.365Z,2.49
2023-03-29T04:30:35.882Z,2.52
2023-03-29T04:33:02.251Z,2.60
2023-03-29T04:35:28.577Z,2.57
2023-03-29T04:37:56.078Z,2.60
2023-03-29T04:40:22.585Z,2.59
2023-03-29T04:42:49.022Z,2.56
2023-03-29T04:45:17.880Z,2.50
2023-03-29T04:47:45.607Z,2.48
2023-03-29T04:50:12.434Z,2.51
2023-03-29T04:52:38.778Z,2.52
2023-03-29T04:55:06.806Z,2.59
2023-03-29T04:57:34.082Z,2.62
2023-03-29T05:00:00.585Z,2.62
2023-03-29T05:02:27.237Z,2.64
2023-03-29T05:04:53.593Z,2.72
2023-03-29T05:07:19.939Z,2.74
2023-03-29T05:09:46.278Z,2.70
2023-03-29T05:12:12.794Z,2.71
2023-03-29T05:14:39.090Z,2.72
2023-03-29T05:17:06.335Z,2.76
2023-03-29T05:19:33.482Z,2.74
2023-03-29T05:21:59.878Z,2.79
2023-03-29T05:24:26.321Z,2.84
2023-03-29T05:26:52.757Z,2.86
2023-03-29T05:29:19.113Z,2.83
2023-03-29T05:31:46.776Z,2.86
2023-03-29T05:34:13.304Z,2.89
2023-03-29T05:36:39.725Z,2.90
2023-03-29T05:39:06.812Z,2.90
2023-03-29T05:41:33.628Z,2.86
2023-03-29T05:44:00.088Z,2.94
2023-03-29T05:46:26.926Z,2.93
2023-03-29T05:48:53.685Z,2.95
2023-03-29T05:51:24.148Z,2.89
2023-03-29T05:53:51.672Z,2.97
2023-03-29T05:56:18.874Z,2.99
2023-03-29T05:58:49.491Z,3.06
2023-03-29T06:01:17.702Z,3.09
2023-03-29T06:03:45.563Z,3.14
2023-03-29T06:06:12.327Z,3.25
2023-03-29T06:08:38.680Z,3.32
2023-03-29T06:11:08.807Z,3.28
2023-03-29T06:13:36.951Z,3.34
2023-03-29T06:16:04.242Z,3.38
2023-03-29T06:18:30.984Z,3.44
2023-03-29T06:20:57.305Z,3.42
2023-03-29T06:23:24.009Z,3.47
2023-03-29T06:25:53.411Z,3.48
2023-03-29T06:28:19.827Z,3.53
2023-03-29T06:30:47.245Z,3.71
2023-03-29T06:33:14.380Z,3.80
2023-03-29T06:35:45.604Z,3.83
2023-03-29T06:38:12.149Z,3.85
2023-03-29T06:40:38.695Z,3.87
2023-03-29T06:43:06.605Z,3.79
2023-03-29T06:45:35.442Z,3.86
2023-03-29T06:48:03.203Z,3.87
2023-03-29T06:50:30.503Z,3.88
2023-03-29T06:52:57.380Z,3.91
2023-03-29T06:55:24.865Z,3.89
2023-03-29T06:57:52.662Z,3.93
2023-03-29T07:00:30.490Z,3.95
2023-03-29T07:02:58.967Z,3.96
2023-03-29T07:05:28.196Z,3.96
2023-03-29T07:07:57.047Z,3.99
2023-03-29T07:10:33.329Z,4.04
2023-03-29T07:13:03.168Z,4.12
2023-03-29T07:15:29.854Z,4.16
2023-03-29T07:17:57.342Z,4.20
2023-03-29T07:20:24.974Z,4.28
2023-03-29T07:22:51.863Z,4.24
2023-03-29T07:25:18.764Z,4.39
2023-03-29T07:27:46.259Z,4.45
2023-03-29T07:30:16.394Z,4.65
2023-03-29T07:32:45.345Z,4.68
2023-03-29T07:35:13.748Z,4.56
2023-03-29T07:37:42.686Z,4.66
2023-03-29T07:40:23.982Z,4.70
2023-03-29T07:42:55.421Z,4.54
2023-03-29T07:45:26.074Z,4.48
2023-03-29T07:47:57.879Z,4.53
2023-03-29T07:50:25.225Z,4.68
2023-03-29T07:52:51.678Z,4.69
2023-03-29T07:55:18.386Z,4.67
2023-03-29T07:57:45.705Z,4.78
2023-03-29T08:00:17.365Z,4.90
2023-03-29T08:02:45.166Z,4.98
2023-03-29T08:05:13.747Z,5.17
2023-03-29T08:07:44.490Z,5.21
2023-03-29T08:10:16.508Z,5.21
2023-03-29T08:12:44.594Z,5.38
2023-03-29T08:15:11.359Z,5.45
2023-03-29T08:17:37.908Z,5.32
2023-03-29T08:20:06.640Z,5.37
2023-03-29T08:22:33.978Z,5.40
2023-03-29T08:25:00.671Z,5.37
2023-03-29T08:27:27.200Z,5.38
2023-03-29T08:29:53.579Z,5.44
2023-03-29T08:32:20.730Z,5.37
2023-03-29T08:34:47.503Z,5.53
2023-03-29T08:37:15.639Z,5.55
2023-03-29T08:39:42.408Z,5.61
2023-03-29T08:42:08.986Z,5.63
2023-03-29T08:44:43.651Z,5.76
2023-03-29T08:47:26.890Z,5.63
2023-03-29T08:49:56.520Z,5.69
2023-03-29T08:52:34.508Z,5.75
2023-03-29T08:55:03.345Z,5.89
2023-03-29T08:57:33.300Z,6.00
2023-03-29T09:00:02.850Z,6.04
2023-03-29T09:02:34.219Z,6.12
2023-03-29T09:05:14.879Z,6.06
2023-03-29T09:07:42.450Z,6.17
2023-03-29T09:10:19.407Z,5.94
2023-03-29T09:12:58.852Z,6.07
2023-03-29T09:15:34.588Z,6.13
2023-03-29T09:18:12.041Z,6.12
2023-03-29T09:21:02.152Z,6.25
2023-03-29T09:23:40.993Z,6.42
2023-03-29T09:26:48.188Z,6.48
2023-03-29T09:29:27.199Z,6.57
2023-03-29T09:31:56.185Z,6.75
2023-03-29T09:34:31.953Z,6.79
2023-03-29T09:37:15.979Z,6.66
2023-03-29T09:39:43.218Z,6.91
2023-03-29T09:42:14.265Z,6.94
2023-03-29T09:44:57.268Z,7.08
2023-03-29T09:47:28.082Z,7.10
2023-03-29T09:50:31.600Z,7.02
2023-03-29T09:52:59.442Z,7.19
2023-03-29T09:55:29.476Z,7.22
2023-03-29T09:58:00.798Z,7.18
2023-03-29T10:00:27.810Z,7.19
2023-03-29T10:02:57.824Z,7.34
2023-03-29T10:05:26.187Z,7.33
2023-03-29T10:07:57.814Z,7.31
2023-03-29T10:10:29.486Z,7.50
2023-03-29T10:13:12.193Z,7.46
2023-03-29T10:15:39.056Z,7.38
2023-03-29T10:18:13.548Z,7.51
2023-03-29T10:20:41.068Z,7.72
2023-03-29T10:23:17.258Z,7.82
2023-03-29T10:25:44.607Z,7.76
2023-03-29T10:28:17.826Z,7.86
2023-03-29T10:30:52.360Z,7.92
2023-03-29T10:33:23.068Z,7.79
2023-03-29T10:35:51.181Z,7.78
2023-03-29T10:38:22.989Z,7.92
2023-03-29T10:40:51.909Z,7.93
2023-03-29T10:43:24.736Z,7.97
2023-03-29T10:45:55.690Z,7.92
2023-03-29T10:48:30.545Z,8.02
2023-03-29T10:51:05.920Z,7.94
2023-03-29T10:53:36.103Z,7.92
2023-03-29T10:56:23.065Z,7.88
2023-03-29T10:58:55.358Z,8.06
2023-03-29T11:01:31.602Z,8.26
2023-03-29T11:04:28.324Z,8.36
2023-03-29T11:07:16.419Z,8.20
2023-03-29T11:10:15.668Z,8.42
2023-03-29T11:12:54.089Z,8.17
2023-03-29T11:15:46.231Z,8.11
2023-03-29T11:18:33.784Z,8.14
2023-03-29T11:21:23.993Z,8.20
2023-03-29T11:24:14.229Z,8.31
2023-03-29T11:27:09.452Z,8.59
2023-03-29T11:29:47.920Z,8.75
2023-03-29T11:32:33.255Z,8.63
2023-03-29T11:35:09.086Z,8.52
2023-03-29T11:37:38.474Z,8.62
2023-03-29T11:40:42.771Z,8.50
2023-03-29T11:43:16.418Z,8.43
2023-03-29T11:45:50.039Z,8.33
2023-03-29T11:48:23.312Z,8.17
2023-03-29T11:50:58.815Z,8.13
2023-03-29T11:53:31.627Z,8.19
2023-03-29T11:56:25.373Z,8.20
2023-03-29T11:59:01.528Z,8.28
2023-03-29T12:01:39.762Z,8.14
2023-03-29T12:04:14.950Z,8.25
2023-03-29T12:06:50.705Z,8.28
2023-03-29T12:09:28.786Z,8.20
2023-03-29T12:12:12.099Z,8.21
2023-03-29T12:15:03.430Z,8.09
2023-03-29T12:17:49.905Z,8.15
2023-03-29T12:20:28.150Z,8.01
2023-03-29T12:22:55.556Z,7.82
2023-03-29T12:25:29.510Z,7.92
2023-03-29T12:28:26.978Z,7.78
2023-03-29T12:31:15.493Z,7.85
2023-03-29T12:33:48.610Z,7.87
2023-03-29T12:36:35.855Z,7.92
2023-03-29T12:39:04.852Z,7.99
2023-03-29T12:41:37.317Z,7.95
2023-03-29T12:44:05.223Z,8.05
2023-03-29T12:46:33.871Z,8.04
2023-03-29T12:49:12.030Z,8.09
2023-03-29T12:51:42.632Z,8.13
2023-03-29T12:54:36.416Z,8.18
2023-03-29T12:57:21.963Z,8.33
2023-03-29T12:59:49.847Z,8.28
2023-03-29T13:02:17.976Z,8.34
2023-03-29T13:04:57.424Z,8.52
2023-03-29T13:07:24.179Z,8.49
2023-03-29T13:10:03.354Z,8.54
2023-03-29T13:12:40.145Z,8.61
2023-03-29T13:15:23.037Z,8.81
2023-03-29T13:18:09.632Z,8.94
2023-03-29T13:20:43.351Z,8.95
2023-03-29T13:23:28.378Z,9.04
2023-03-29T13:26:31.591Z,8.87
2023-03-29T13:29:07.228Z,8.99
2023-03-29T13:31:42.579Z,9.06
2023-03-29T13:34:28.142Z,9.25
2023-03-29T13:37:09.219Z,9.28
2023-03-29T13:39:36.973Z,9.23
2023-03-29T13:42:20.054Z,9.35
2023-03-29T13:44:49.118Z,9.34
2023-03-29T13:47:35.411Z,9.32
2023-03-29T13:50:38.682Z,9.40
2023-03-29T13:53:19.635Z,9.43
2023-03-29T13:55:48.828Z,9.56
2023-03-29T13:58:44.888Z,9.43
2023-03-29T14:01:19.373Z,9.43
2023-03-29T14:03:48.718Z,9.44
2023-03-29T14:06:32.657Z,9.62
2023-03-29T14:09:06.157Z,9.67
2023-03-29T14:11:33.601Z,9.92
2023-03-29T14:14:04.966Z,9.96
2023-03-29T14:16:37.008Z,9.96
2023-03-29T14:19:07.551Z,9.84
2023-03-29T14:21:34.105Z,9.78
2023-03-29T14:24:02.202Z,9.72
2023-03-29T14:26:34.541Z,9.66
2023-03-29T14:29:02.716Z,9.72
2023-03-29T14:31:35.403Z,9.67
2023-03-29T14:34:05.871Z,9.70
2023-03-29T14:36:33.430Z,9.79
2023-03-29T14:39:31.032Z,9.75
2023-03-29T14:41:57.976Z,9.71
2023-03-29T14:44:31.796Z,9.76
2023-03-29T14:46:59.581Z,9.76
2023-03-29T14:49:26.316Z,9.73
2023-03-29T14:51:53.589Z,9.83
2023-03-29T14:54:22.103Z,9.79
2023-03-29T14:56:49.991Z,9.76
2023-03-29T14:59:27.940Z,9.89
2023-03-29T15:01:54.411Z,9.91
2023-03-29T15:04:21.213Z,9.80
2023-03-29T15:06:50.828Z,9.77
2023-03-29T15:09:20.870Z,9.68
2023-03-29T15:11:58.595Z,9.81
2023-03-29T15:14:28.020Z,9.78
2023-03-29T15:17:03.037Z,9.74
2023-03-29T15:19:29.436Z,9.79
2023-03-29T15:21:56.027Z,9.74
2023-03-29T15:24:33.675Z,9.73
2023-03-29T15:27:13.894Z,9.65
2023-03-29T15:29:42.689Z,9.64
2023-03-29T15:32:19.223Z,9.64
2023-03-29T15:34:45.932Z,9.67
2023-03-29T15:37:12.875Z,9.61
2023-03-29T15:39:44.120Z,9.63
2023-03-29T15:42:10.952Z,9.66
2023-03-29T15:44:38.845Z,9.58
2023-03-29T15:47:11.956Z,9.66
2023-03-29T15:49:38.282Z,9.61
2023-03-29T15:52:04.821Z,9.59
2023-03-29T15:54:33.215Z,9.56
2023-03-29T15:57:03.497Z,9.63
2023-03-29T15:59:33.737Z,9.68
2023-03-29T16:02:00.497Z,9.64
2023-03-29T16:04:26.981Z,9.61
2023-03-29T16:06:54.645Z,9.65
2023-03-29T16:09:22.197Z,9.65
2023-03-29T16:11:49.584Z,9.64
2023-03-29T16:14:33.891Z,9.70
2023-03-29T16:17:01.629Z,9.72
2023-03-29T16:19:29.429Z,9.68
2023-03-29T16:21:56.885Z,9.61
2023-03-29T16:24:26.445Z,9.61
2023-03-29T16:26:55.592Z,9.56
2023-03-29T16:29:22.973Z,9.45
2023-03-29T16:31:49.779Z,9.54
2023-03-29T16:34:18.725Z,9.56
2023-03-29T16:36:46.415Z,9.59
2023-03-29T16:39:13.639Z,9.59
2023-03-29T16:41:41.058Z,9.65
2023-03-29T16:44:07.777Z,9.58
2023-03-29T16:46:34.194Z,9.55
2023-03-29T16:49:00.656Z,9.51
2023-03-29T16:51:27.032Z,9.51
2023-03-29T16:53:53.309Z,9.46
2023-03-29T16:56:19.640Z,9.48
2023-03-29T16:58:46.742Z,9.55
2023-03-29T17:01:19.116Z,9.57
2023-03-29T17:03:45.508Z,9.66
2023-03-29T17:06:12.229Z,9.64
2023-03-29T17:08:39.309Z,9.57
2023-03-29T17:11:08.782Z,9.61
2023-03-29T17:13:35.177Z,9.62
2023-03-29T17:16:01.890Z,9.55
2023-03-29T17:18:28.650Z,9.53
2023-03-29T17:20:57.105Z,9.49
2023-03-29T17:23:24.188Z,9.48
2023-03-29T17:25:51.186Z,9.49
2023-03-29T17:28:17.473Z,9.52
2023-03-29T17:30:46.996Z,9.49
2023-03-29T17:33:13.548Z,9.47
2023-03-29T17:35:46.264Z,9.46
2023-03-29T17:38:12.621Z,9.44
2023-03-29T17:40:39.203Z,9.46
2023-03-29T17:43:06.240Z,9.40
2023-03-29T17:45:33.027Z,9.40
2023-03-29T17:47:59.474Z,9.42
2023-03-29T17:50:26.299Z,9.43
2023-03-29T17:52:52.743Z,9.45
2023-03-29T17:55:20.840Z,9.38
2023-03-29T17:57:48.820Z,9.32
2023-03-29T18:00:16.731Z,9.29
2023-03-29T18:02:43.377Z,9.27
2023-03-29T18:05:10.085Z,9.27
2023-03-29T18:07:36.751Z,9.24
2023-03-29T18:10:03.389Z,9.28
2023-03-29T18:12:29.789Z,9.24
2023-03-29T18:14:56.853Z,9.26
2023-03-29T18:17:24.357Z,9.21
2023-03-29T18:19:51.331Z,9.22
2023-03-29T18:22:18.519Z,9.10
2023-03-29T18:24:46.345Z,9.05
2023-03-29T18:27:12.956Z,9.11
2023-03-29T18:29:39.340Z,9.18
2023-03-29T18:32:05.910Z,9.17
2023-03-29T18:34:33.519Z,9.11
2023-03-29T18:36:59.842Z,9.13
2023-03-29T18:39:27.152Z,9.07
2023-03-29T18:41:53.506Z,9.13
2023-03-29T18:44:21.760Z,9.19
2023-03-29T18:46:48.234Z,9.11
2023-03-29T18:49:14.592Z,9.06
2023-03-29T18:51:41.978Z,9.10
2023-03-29T18:54:08.897Z,9.10
2023-03-29T18:56:35.624Z,9.11
2023-03-29T18:59:05.046Z,9.08
2023-03-29T19:01:32.459Z,9.04
2023-03-29T19:03:58.923Z,8.95
2023-03-29T19:06:25.729Z,8.94
2023-03-29T19:08:53.859Z,9.04
2023-03-29T19:11:20.387Z,9.06
2023-03-29T19:13:50.001Z,9.01
2023-03-29T19:16:17.034Z,8.95
2023-03-29T19:18:43.544Z,8.96
2023-03-29T19:21:09.943Z,8.99
2023-03-29T19:23:36.410Z,9.03
2023-03-29T19:26:05.359Z,8.92
2023-03-29T19:28:33.581Z,8.83
2023-03-29T19:31:01.889Z,8.89
2023-03-29T19:33:29.320Z,8.95
2023-03-29T19:35:56.153Z,8.91
2023-03-29T19:38:22.567Z,8.88
2023-03-29T19:40:50.305Z,8.88
2023-03-29T19:43:18.036Z,8.83
2023-03-29T19:45:45.915Z,8.73
2023-03-29T19:48:21.820Z,8.81
2023-03-29T19:50:49.209Z,8.78
2023-03-29T19:53:15.619Z,8.80
2023-03-29T19:55:42.575Z,8.82
2023-03-29T19:58:09.318Z,8.82
2023-03-29T20:00:35.614Z,8.79
2023-03-29T20:03:02.149Z,8.76
2023-03-29T20:05:28.498Z,8.76
2023-03-29T20:07:54.798Z,8.81
2023-03-29T20:10:21.208Z,8.80
2023-03-29T20:12:47.759Z,8.80
2023-03-29T20:15:14.076Z,8.70
2023-03-29T20:17:40.734Z,8.74
2023-03-29T20:20:11.843Z,8.82
2023-03-29T20:22:41.912Z,8.84
2023-03-29T20:25:09.302Z,8.83
2023-03-29T20:27:35.892Z,8.81
2023-03-29T20:30:02.923Z,8.78
2023-03-29T20:32:29.914Z,8.72
2023-03-29T20:34:56.394Z,8.69
2023-03-29T20:37:22.895Z,8.60
2023-03-29T20:39:49.567Z,8.63
2023-03-29T20:42:15.965Z,8.63
2023-03-29T20:44:42.320Z,8.63
2023-03-29T20:47:13.942Z,8.64
2023-03-29T20:49:42.021Z,8.65
2023-03-29T20:52:15.968Z,8.68
2023-03-29T20:54:43.733Z,8.67
2023-03-29T20:57:15.935Z,8.64
2023-03-29T20:59:43.628Z,8.65
2023-03-29T21:02:17.146Z,8.65
2023-03-29T21:04:43.981Z,8.65
2023-03-29T21:07:10.603Z,8.57
2023-03-29T21:09:37.046Z,8.55
2023-03-29T21:12:03.372Z,8.46
2023-03-29T21:14:30.266Z,8.47
2023-03-29T21:16:56.622Z,8.48
2023-03-29T21:19:24.109Z,8.49
2023-03-29T21:21:51.894Z,8.57
2023-03-29T21:24:18.959Z,8.54
2023-03-29T21:26:46.199Z,8.51
2023-03-29T21:29:12.851Z,8.45
2023-03-29T21:31:39.971Z,8.44
2023-03-29T21:34:06.474Z,8.44
2023-03-29T21:36:32.825Z,8.42
2023-03-29T21:38:59.146Z,8.39
2023-03-29T21:41:26.182Z,8.36
2023-03-29T21:43:52.476Z,8.36
2023-03-29T21:46:18.895Z,8.36
2023-03-29T21:48:45.371Z,8.38
2023-03-29T21:51:11.773Z,8.38
2023-03-29T21:53:38.082Z,8.38
2023-03-29T21:56:04.784Z,8.39
2023-03-29T21:58:31.151Z,8.39
2023-03-29T22:00:57.587Z,8.44
2023-03-29T22:03:24.075Z,8.46
2023-03-29T22:06:02.320Z,8.50
2023-03-29T22:08:29.514Z,8.46
2023-03-29T22:10:56.844Z,8.45
2023-03-29T22:13:24.487Z,8.43
2023-03-29T22:15:55.852Z,8.43
2023-03-29T22:18:22.265Z,8.45
2023-03-29T22:20:48.708Z,8.46
2023-03-29T22:23:15.337Z,8.38
2023-03-29T22:25:41.645Z,8.39
2023-03-29T22:28:07.971Z,8.39
2023-03-29T22:30:34.246Z,8.36
2023-03-29T22:33:00.799Z,8.27
2023-03-29T22:35:27.192Z,8.25
2023-03-29T22:37:53.551Z,8.26
2023-03-29T22:40:19.860Z,8.28
2023-03-29T22:42:46.161Z,8.18
2023-03-29T22:45:12.493Z,8.18
2023-03-29T22:47:38.902Z,8.22
2023-03-29T22:50:06.098Z,8.15
2023-03-29T22:52:32.458Z,8.13
2023-03-29T22:54:58.743Z,8.07
2023-03-29T22:57:25.395Z,8.09
2023-03-29T22:59:51.736Z,8.02
2023-03-29T23:02:18.042Z,8.03
2023-03-29T23:04:45.377Z,8.03
2023-03-29T23:07:12.105Z,7.99
2023-03-29T23:09:38.471Z,8.02
2023-03-29T23:12:05.443Z,7.99
2023-03-29T23:14:33.602Z,8.03
2023-03-29T23:17:00.108Z,7.97
2023-03-29T23:19:26.961Z,7.98
2023-03-29T23:21:53.235Z,7.95
2023-03-29T23:24:19.671Z,8.06
2023-03-29T23:26:48.821Z,8.03
2023-03-29T23:29:15.306Z,7.97
2023-03-29T23:31:41.856Z,7.98
2023-03-29T23:34:09.013Z,8.04
2023-03-29T23:36:35.316Z,7.99
2023-03-29T23:39:01.787Z,8.01
2023-03-29T23:41:28.236Z,8.03
2023-03-29T23:43:55.034Z,8.03
2023-03-29T23:46:21.389Z,8.07
2023-03-29T23:48:49.961Z,8.12
2023-03-29T23:51:18.552Z,8.12
2023-03-29T23:53:44.906Z,8.17
2023-03-29T23:56:11.714Z,8.15
2023-03-29T23:58:38.248Z,8.15
